sensor_id;sensor_type;location;lat;lon;timestamp;pressure;altitude;pressure_sealevel;temperature;humidity
61676;BME280;47574;52.090;5.244;2023-04-08T00:00:30;102276.0;;;14.74;57.42
61676;BME280;47574;52.090;5.244;2023-04-08T00:02:07;102275.0;;;14.76;57.62
61676;BME280;47574;52.090;5.244;2023-04-08T00:05:19;102275.0;;;14.62;57.82
61676;BME280;47574;52.090;5.244;2023-04-08T00:06:55;102277.0;;;14.73;57.43
61676;BME280;47574;52.090;5.244;2023-04-08T00:08:31;102278.0;;;14.6;57.89
61676;BME280;47574;52.090;5.244;2023-04-08T00:11:44;102277.0;;;14.58;58.13
61676;BME280;47574;52.090;5.244;2023-04-08T00:13:20;102282.0;;;14.51;58.47
61676;BME280;47574;52.090;5.244;2023-04-08T00:14:56;102284.0;;;14.51;58.0
61676;BME280;47574;52.090;5.244;2023-04-08T00:16:32;102284.0;;;14.43;58.44
61676;BME280;47574;52.090;5.244;2023-04-08T00:19:45;102280.0;;;14.52;58.12
61676;BME280;47574;52.090;5.244;2023-04-08T00:21:21;102283.0;;;14.68;58.04
61676;BME280;47574;52.090;5.244;2023-04-08T00:22:58;102280.0;;;14.68;57.75
61676;BME280;47574;52.090;5.244;2023-04-08T00:26:10;102280.0;;;14.65;58.02
61676;BME280;47574;52.090;5.244;2023-04-08T00:27:46;102280.0;;;14.15;58.83
61676;BME280;47574;52.090;5.244;2023-04-08T00:29:22;102282.0;;;14.32;58.91
61676;BME280;47574;52.090;5.244;2023-04-08T00:32:35;102280.0;;;13.86;59.68
61676;BME280;47574;52.090;5.244;2023-04-08T00:34:11;102278.0;;;14.16;59.12
61676;BME280;47574;52.090;5.244;2023-04-08T00:35:47;102277.0;;;14.27;58.85
61676;BME280;47574;52.090;5.244;2023-04-08T00:38:59;102282.0;;;14.48;58.24
61676;BME280;47574;52.090;5.244;2023-04-08T00:40:35;102281.0;;;14.44;58.54
61676;BME280;47574;52.090;5.244;2023-04-08T00:42:11;102281.0;;;14.19;58.93
61676;BME280;47574;52.090;5.244;2023-04-08T00:43:47;102282.0;;;14.21;59.0
61676;BME280;47574;52.090;5.244;2023-04-08T00:47:02;102281.0;;;14.36;58.61
61676;BME280;47574;52.090;5.244;2023-04-08T00:48:39;102282.0;;;14.34;58.67
61676;BME280;47574;52.090;5.244;2023-04-08T00:50:15;102286.0;;;14.33;58.87
61676;BME280;47574;52.090;5.244;2023-04-08T00:53:30;102283.0;;;14.29;59.28
61676;BME280;47574;52.090;5.244;2023-04-08T00:55:06;102282.0;;;14.58;58.22
61676;BME280;47574;52.090;5.244;2023-04-08T00:56:42;102280.0;;;14.47;58.56
61676;BME280;47574;52.090;5.244;2023-04-08T00:59:56;102282.0;;;14.43;58.62
61676;BME280;47574;52.090;5.244;2023-04-08T01:01:38;102282.0;;;14.36;58.81
61676;BME280;47574;52.090;5.244;2023-04-08T01:03:23;102283.0;;;14.44;59.09
61676;BME280;47574;52.090;5.244;2023-04-08T01:05:12;102282.0;;;14.61;58.41
61676;BME280;47574;52.090;5.244;2023-04-08T01:06:56;102292.0;;;14.49;58.72
61676;BME280;47574;52.090;5.244;2023-04-08T01:10:17;102289.0;;;14.3;58.93
61676;BME280;47574;52.090;5.244;2023-04-08T01:12:06;102298.0;;;14.41;58.67
61676;BME280;47574;52.090;5.244;2023-04-08T01:13:44;102294.0;;;14.22;59.06
61676;BME280;47574;52.090;5.244;2023-04-08T01:15:23;102296.0;;;14.27;59.0
61676;BME280;47574;52.090;5.244;2023-04-08T01:18:37;102294.0;;;14.26;59.16
61676;BME280;47574;52.090;5.244;2023-04-08T01:20:15;102295.0;;;14.04;59.31
61676;BME280;47574;52.090;5.244;2023-04-08T01:21:54;102298.0;;;13.64;59.96
61676;BME280;47574;52.090;5.244;2023-04-08T01:23:40;102299.0;;;13.95;59.16
61676;BME280;47574;52.090;5.244;2023-04-08T01:26:59;102301.0;;;13.84;59.87
61676;BME280;47574;52.090;5.244;2023-04-08T01:28:38;102297.0;;;13.55;60.29
61676;BME280;47574;52.090;5.244;2023-04-08T01:30:17;102299.0;;;13.61;60.31
61676;BME280;47574;52.090;5.244;2023-04-08T01:31:54;102301.0;;;13.77;59.9
61676;BME280;47574;52.090;5.244;2023-04-08T01:35:09;102301.0;;;13.83;59.81
61676;BME280;47574;52.090;5.244;2023-04-08T01:36:46;102305.0;;;13.96;59.62
61676;BME280;47574;52.090;5.244;2023-04-08T01:38:24;102302.0;;;13.8;60.06
61676;BME280;47574;52.090;5.244;2023-04-08T01:41:38;102303.0;;;14.05;59.45
61676;BME280;47574;52.090;5.244;2023-04-08T01:43:16;102306.0;;;14.04;59.29
61676;BME280;47574;52.090;5.244;2023-04-08T01:44:54;102306.0;;;13.9;59.46
61676;BME280;47574;52.090;5.244;2023-04-08T01:46:32;102307.0;;;13.91;59.6
61676;BME280;47574;52.090;5.244;2023-04-08T01:49:49;102306.0;;;13.86;59.79
61676;BME280;47574;52.090;5.244;2023-04-08T01:51:27;102310.0;;;13.8;59.95
61676;BME280;47574;52.090;5.244;2023-04-08T01:53:07;102306.0;;;13.67;60.12
61676;BME280;47574;52.090;5.244;2023-04-08T01:56:21;102311.0;;;13.73;59.82
61676;BME280;47574;52.090;5.244;2023-04-08T01:57:59;102310.0;;;13.68;60.41
61676;BME280;47574;52.090;5.244;2023-04-08T01:59:37;102307.0;;;13.81;60.07
61676;BME280;47574;52.090;5.244;2023-04-08T02:01:17;102311.0;;;13.7;60.32
61676;BME280;47574;52.090;5.244;2023-04-08T02:04:34;102306.0;;;13.78;60.28
61676;BME280;47574;52.090;5.244;2023-04-08T02:06:11;102307.0;;;13.91;59.95
61676;BME280;47574;52.090;5.244;2023-04-08T02:07:47;102305.0;;;13.88;59.69
61676;BME280;47574;52.090;5.244;2023-04-08T02:11:01;102305.0;;;13.87;59.81
61676;BME280;47574;52.090;5.244;2023-04-08T02:12:37;102302.0;;;13.79;59.76
61676;BME280;47574;52.090;5.244;2023-04-08T02:14:15;102306.0;;;13.82;59.61
61676;BME280;47574;52.090;5.244;2023-04-08T02:15:56;102308.0;;;13.66;60.24
61676;BME280;47574;52.090;5.244;2023-04-08T02:19:23;102307.0;;;13.33;61.03
61676;BME280;47574;52.090;5.244;2023-04-08T02:21:10;102305.0;;;13.61;61.04
61676;BME280;47574;52.090;5.244;2023-04-08T02:22:51;102307.0;;;13.64;61.12
61676;BME280;47574;52.090;5.244;2023-04-08T02:24:40;102305.0;;;13.63;60.45
61676;BME280;47574;52.090;5.244;2023-04-08T02:26:19;102312.0;;;13.61;60.66
61676;BME280;47574;52.090;5.244;2023-04-08T02:29:39;102308.0;;;13.69;60.11
61676;BME280;47574;52.090;5.244;2023-04-08T02:31:17;102312.0;;;13.61;60.36
61676;BME280;47574;52.090;5.244;2023-04-08T02:32:56;102311.0;;;13.7;60.38
61676;BME280;47574;52.090;5.244;2023-04-08T02:36:12;102312.0;;;13.68;60.35
61676;BME280;47574;52.090;5.244;2023-04-08T02:37:49;102309.0;;;13.31;61.18
61676;BME280;47574;52.090;5.244;2023-04-08T02:39:30;102312.0;;;13.39;61.15
61676;BME280;47574;52.090;5.244;2023-04-08T02:41:06;102311.0;;;13.45;60.85
61676;BME280;47574;52.090;5.244;2023-04-08T02:44:18;102316.0;;;13.5;60.31
61676;BME280;47574;52.090;5.244;2023-04-08T02:45:55;102316.0;;;13.57;60.27
61676;BME280;47574;52.090;5.244;2023-04-08T02:47:31;102319.0;;;13.58;60.0
61676;BME280;47574;52.090;5.244;2023-04-08T02:50:43;102316.0;;;13.5;59.79
61676;BME280;47574;52.090;5.244;2023-04-08T02:52:19;102324.0;;;13.59;59.71
61676;BME280;47574;52.090;5.244;2023-04-08T02:53:55;102321.0;;;13.58;59.55
61676;BME280;47574;52.090;5.244;2023-04-08T02:55:31;102320.0;;;13.68;59.37
61676;BME280;47574;52.090;5.244;2023-04-08T02:58:44;102324.0;;;13.86;58.85
61676;BME280;47574;52.090;5.244;2023-04-08T03:01:56;102330.0;;;13.71;59.21
61676;BME280;47574;52.090;5.244;2023-04-08T03:05:09;102331.0;;;13.59;59.51
61676;BME280;47574;52.090;5.244;2023-04-08T03:06:45;102334.0;;;13.05;60.26
61676;BME280;47574;52.090;5.244;2023-04-08T03:08:22;102331.0;;;13.36;60.07
61676;BME280;47574;52.090;5.244;2023-04-08T03:11:35;102326.0;;;13.46;59.73
61676;BME280;47574;52.090;5.244;2023-04-08T03:13:11;102333.0;;;13.43;60.0
61676;BME280;47574;52.090;5.244;2023-04-08T03:14:47;102331.0;;;13.48;59.93
61676;BME280;47574;52.090;5.244;2023-04-08T03:18:00;102340.0;;;13.38;59.7
61676;BME280;47574;52.090;5.244;2023-04-08T03:19:37;102338.0;;;13.39;59.45
61676;BME280;47574;52.090;5.244;2023-04-08T03:21:13;102336.0;;;13.26;59.8
61676;BME280;47574;52.090;5.244;2023-04-08T03:22:49;102338.0;;;13.37;59.33
61676;BME280;47574;52.090;5.244;2023-04-08T03:26:01;102343.0;;;13.4;59.16
61676;BME280;47574;52.090;5.244;2023-04-08T03:27:37;102337.0;;;13.38;59.16
61676;BME280;47574;52.090;5.244;2023-04-08T03:29:13;102335.0;;;13.38;59.19
61676;BME280;47574;52.090;5.244;2023-04-08T03:32:26;102335.0;;;13.46;59.24
61676;BME280;47574;52.090;5.244;2023-04-08T03:34:02;102333.0;;;13.41;59.25
61676;BME280;47574;52.090;5.244;2023-04-08T03:35:38;102342.0;;;13.32;59.95
61676;BME280;47574;52.090;5.244;2023-04-08T03:38:49;102338.0;;;13.43;59.44
61676;BME280;47574;52.090;5.244;2023-04-08T03:40:26;102339.0;;;13.37;59.36
61676;BME280;47574;52.090;5.244;2023-04-08T03:42:02;102346.0;;;13.34;60.09
61676;BME280;47574;52.090;5.244;2023-04-08T03:45:14;102345.0;;;13.27;60.11
61676;BME280;47574;52.090;5.244;2023-04-08T03:46:50;102336.0;;;13.53;59.6
61676;BME280;47574;52.090;5.244;2023-04-08T03:48:26;102346.0;;;13.44;60.12
61676;BME280;47574;52.090;5.244;2023-04-08T03:50:03;102350.0;;;13.39;60.16
61676;BME280;47574;52.090;5.244;2023-04-08T03:53:15;102347.0;;;13.39;60.11
61676;BME280;47574;52.090;5.244;2023-04-08T03:54:51;102351.0;;;13.17;60.23
61676;BME280;47574;52.090;5.244;2023-04-08T03:56:27;102353.0;;;13.06;60.59
61676;BME280;47574;52.090;5.244;2023-04-08T03:59:39;102355.0;;;13.19;60.5
61676;BME280;47574;52.090;5.244;2023-04-08T04:01:16;102359.0;;;13.22;60.37
61676;BME280;47574;52.090;5.244;2023-04-08T04:02:52;102356.0;;;13.33;60.07
61676;BME280;47574;52.090;5.244;2023-04-08T04:06:04;102356.0;;;13.21;60.41
61676;BME280;47574;52.090;5.244;2023-04-08T04:07:40;102361.0;;;13.11;60.28
61676;BME280;47574;52.090;5.244;2023-04-08T04:09:16;102362.0;;;13.34;59.97
61676;BME280;47574;52.090;5.244;2023-04-08T04:10:52;102367.0;;;13.23;60.11
61676;BME280;47574;52.090;5.244;2023-04-08T04:14:05;102368.0;;;12.9;60.92
61676;BME280;47574;52.090;5.244;2023-04-08T04:15:41;102367.0;;;12.74;60.94
61676;BME280;47574;52.090;5.244;2023-04-08T04:17:17;102365.0;;;12.47;61.46
61676;BME280;47574;52.090;5.244;2023-04-08T04:20:29;102368.0;;;12.98;60.43
61676;BME280;47574;52.090;5.244;2023-04-08T04:22:05;102367.0;;;12.59;61.27
61676;BME280;47574;52.090;5.244;2023-04-08T04:23:41;102373.0;;;12.71;61.08
61676;BME280;47574;52.090;5.244;2023-04-08T04:26:54;102381.0;;;12.87;60.89
61676;BME280;47574;52.090;5.244;2023-04-08T04:28:30;102389.0;;;12.97;60.59
61676;BME280;47574;52.090;5.244;2023-04-08T04:30:07;102388.0;;;13.19;60.22
61676;BME280;47574;52.090;5.244;2023-04-08T04:33:19;102392.0;;;13.1;60.43
61676;BME280;47574;52.090;5.244;2023-04-08T04:34:55;102388.0;;;13.42;59.48
61676;BME280;47574;52.090;5.244;2023-04-08T04:36:32;102386.0;;;13.51;59.12
61676;BME280;47574;52.090;5.244;2023-04-08T04:38:07;102390.0;;;13.35;59.43
61676;BME280;47574;52.090;5.244;2023-04-08T04:41:20;102395.0;;;13.3;59.28
61676;BME280;47574;52.090;5.244;2023-04-08T04:42:56;102401.0;;;13.33;59.41
61676;BME280;47574;52.090;5.244;2023-04-08T04:44:32;102406.0;;;13.17;59.82
61676;BME280;47574;52.090;5.244;2023-04-08T04:47:44;102404.0;;;13.21;60.09
61676;BME280;47574;52.090;5.244;2023-04-08T04:49:21;102403.0;;;13.28;59.8
61676;BME280;47574;52.090;5.244;2023-04-08T04:50:57;102408.0;;;13.21;60.08
61676;BME280;47574;52.090;5.244;2023-04-08T04:54:12;102408.0;;;13.31;59.78
61676;BME280;47574;52.090;5.244;2023-04-08T04:55:48;102408.0;;;13.38;59.87
61676;BME280;47574;52.090;5.244;2023-04-08T04:57:25;102407.0;;;13.4;59.68
61676;BME280;47574;52.090;5.244;2023-04-08T04:59:01;102408.99999999999;;;13.4;59.43
61676;BME280;47574;52.090;5.244;2023-04-08T05:02:14;102411.99999999999;;;13.36;59.74
61676;BME280;47574;52.090;5.244;2023-04-08T05:03:51;102411.99999999999;;;13.47;59.47
61676;BME280;47574;52.090;5.244;2023-04-08T05:05:27;102408.0;;;13.46;59.53
61676;BME280;47574;52.090;5.244;2023-04-08T05:08:39;102408.0;;;13.36;59.44
61676;BME280;47574;52.090;5.244;2023-04-08T05:10:16;102417.0;;;13.37;59.57
61676;BME280;47574;52.090;5.244;2023-04-08T05:11:52;102416.00000000001;;;13.19;59.92
61676;BME280;47574;52.090;5.244;2023-04-08T05:15:05;102415.00000000001;;;13.41;59.17
61676;BME280;47574;52.090;5.244;2023-04-08T05:16:41;102418.0;;;13.3;59.63
61676;BME280;47574;52.090;5.244;2023-04-08T05:18:18;102419.0;;;13.19;59.78
61676;BME280;47574;52.090;5.244;2023-04-08T05:19:53;102415.00000000001;;;13.34;59.22
61676;BME280;47574;52.090;5.244;2023-04-08T05:23:06;102421.0;;;13.34;59.56
61676;BME280;47574;52.090;5.244;2023-04-08T05:24:42;102424.0;;;13.31;59.46
61676;BME280;47574;52.090;5.244;2023-04-08T05:26:18;102424.0;;;13.12;59.76
61676;BME280;47574;52.090;5.244;2023-04-08T05:29:30;102428.0;;;13.21;59.31
61676;BME280;47574;52.090;5.244;2023-04-08T05:31:07;102431.0;;;13.19;59.28
61676;BME280;47574;52.090;5.244;2023-04-08T05:32:43;102429.0;;;13.01;59.33
61676;BME280;47574;52.090;5.244;2023-04-08T05:35:55;102433.0;;;13.13;59.1
61676;BME280;47574;52.090;5.244;2023-04-08T05:37:31;102433.0;;;13.2;58.91
61676;BME280;47574;52.090;5.244;2023-04-08T05:39:07;102434.99999999999;;;13.22;58.52
61676;BME280;47574;52.090;5.244;2023-04-08T05:42:20;102430.0;;;12.83;59.45
61676;BME280;47574;52.090;5.244;2023-04-08T05:43:56;102441.00000000001;;;13.09;58.74
61676;BME280;47574;52.090;5.244;2023-04-08T05:45:32;102441.00000000001;;;13.2;58.18
61676;BME280;47574;52.090;5.244;2023-04-08T05:47:08;102444.0;;;13.05;58.76
61676;BME280;47574;52.090;5.244;2023-04-08T05:50:20;102448.0;;;12.77;58.77
61676;BME280;47574;52.090;5.244;2023-04-08T05:51:56;102447.0;;;12.92;58.7
61676;BME280;47574;52.090;5.244;2023-04-08T05:53:32;102449.0;;;12.75;58.76
61676;BME280;47574;52.090;5.244;2023-04-08T05:56:45;102450.0;;;12.95;59.1
61676;BME280;47574;52.090;5.244;2023-04-08T05:58:21;102453.0;;;12.94;58.79
61676;BME280;47574;52.090;5.244;2023-04-08T05:59:57;102456.0;;;13.02;58.41
61676;BME280;47574;52.090;5.244;2023-04-08T06:03:09;102456.0;;;13.02;58.64
61676;BME280;47574;52.090;5.244;2023-04-08T06:04:46;102458.0;;;12.78;59.14
61676;BME280;47574;52.090;5.244;2023-04-08T06:06:22;102458.0;;;12.82;58.75
61676;BME280;47574;52.090;5.244;2023-04-08T06:09:34;102457.0;;;12.65;58.45
61676;BME280;47574;52.090;5.244;2023-04-08T06:11:10;102456.0;;;12.46;58.88
61676;BME280;47574;52.090;5.244;2023-04-08T06:12:46;102461.99999999999;;;12.71;58.61
61676;BME280;47574;52.090;5.244;2023-04-08T06:14:22;102463.00000000001;;;12.69;58.62
61676;BME280;47574;52.090;5.244;2023-04-08T06:17:46;102464.00000000001;;;12.65;58.22
61676;BME280;47574;52.090;5.244;2023-04-08T06:19:22;102459.99999999999;;;12.68;58.11
61676;BME280;47574;52.090;5.244;2023-04-08T06:20:58;102468.0;;;12.7;58.21
61676;BME280;47574;52.090;5.244;2023-04-08T06:24:10;102468.0;;;12.51;58.75
61676;BME280;47574;52.090;5.244;2023-04-08T06:25:46;102467.0;;;12.71;58.39
61676;BME280;47574;52.090;5.244;2023-04-08T06:27:22;102468.0;;;12.54;58.84
61676;BME280;47574;52.090;5.244;2023-04-08T06:28:58;102471.0;;;12.68;58.98
61676;BME280;47574;52.090;5.244;2023-04-08T06:32:11;102478.0;;;12.96;58.44
61676;BME280;47574;52.090;5.244;2023-04-08T06:33:47;102482.0;;;12.78;58.54
61676;BME280;47574;52.090;5.244;2023-04-08T06:35:23;102488.00000000001;;;12.7;58.55
61676;BME280;47574;52.090;5.244;2023-04-08T06:38:35;102491.00000000001;;;12.85;57.57
61676;BME280;47574;52.090;5.244;2023-04-08T06:40:12;102494.0;;;13.13;57.07
61676;BME280;47574;52.090;5.244;2023-04-08T06:41:48;102496.0;;;12.71;57.4
61676;BME280;47574;52.090;5.244;2023-04-08T06:45:00;102495.0;;;12.73;57.42
61676;BME280;47574;52.090;5.244;2023-04-08T06:46:36;102503.0;;;12.84;57.85
61676;BME280;47574;52.090;5.244;2023-04-08T06:48:12;102503.0;;;13.0;57.08
61676;BME280;47574;52.090;5.244;2023-04-08T06:51:25;102501.0;;;12.81;57.29
61676;BME280;47574;52.090;5.244;2023-04-08T06:53:01;102501.0;;;13.09;56.3
61676;BME280;47574;52.090;5.244;2023-04-08T06:54:37;102505.0;;;13.33;56.01
61676;BME280;47574;52.090;5.244;2023-04-08T06:56:13;102504.0;;;13.26;56.23
61676;BME280;47574;52.090;5.244;2023-04-08T06:59:26;102508.99999999999;;;13.09;57.01
61676;BME280;47574;52.090;5.244;2023-04-08T07:01:02;102514.00000000001;;;13.12;56.08
61676;BME280;47574;52.090;5.244;2023-04-08T07:02:38;102513.00000000001;;;13.37;54.59
61676;BME280;47574;52.090;5.244;2023-04-08T07:05:51;102508.99999999999;;;13.45;53.52
61676;BME280;47574;52.090;5.244;2023-04-08T07:07:26;102517.0;;;13.46;54.19
61676;BME280;47574;52.090;5.244;2023-04-08T07:09:03;102525.0;;;13.22;54.08
61676;BME280;47574;52.090;5.244;2023-04-08T07:12:15;102531.0;;;13.45;53.8
61676;BME280;47574;52.090;5.244;2023-04-08T07:13:51;102528.0;;;13.58;53.55
61676;BME280;47574;52.090;5.244;2023-04-08T07:15:27;102525.0;;;13.59;53.96
61676;BME280;47574;52.090;5.244;2023-04-08T07:17:03;102529.0;;;13.54;53.8
61676;BME280;47574;52.090;5.244;2023-04-08T07:20:16;102530.0;;;13.68;53.22
61676;BME280;47574;52.090;5.244;2023-04-08T07:21:52;102536.99999999999;;;13.59;53.07
61676;BME280;47574;52.090;5.244;2023-04-08T07:23:28;102533.99999999999;;;13.35;53.92
61676;BME280;47574;52.090;5.244;2023-04-08T07:26:42;102533.99999999999;;;13.45;54.07
61676;BME280;47574;52.090;5.244;2023-04-08T07:28:18;102547.0;;;13.57;52.99
61676;BME280;47574;52.090;5.244;2023-04-08T07:29:54;102548.0;;;13.7;53.22
61676;BME280;47574;52.090;5.244;2023-04-08T07:33:06;102549.0;;;13.89;52.4
61676;BME280;47574;52.090;5.244;2023-04-08T07:34:42;102547.0;;;13.71;53.49
61676;BME280;47574;52.090;5.244;2023-04-08T07:36:19;102544.0;;;13.69;53.74
61676;BME280;47574;52.090;5.244;2023-04-08T07:39:31;102550.0;;;13.83;52.76
61676;BME280;47574;52.090;5.244;2023-04-08T07:41:07;102545.0;;;13.92;52.71
61676;BME280;47574;52.090;5.244;2023-04-08T07:42:43;102550.0;;;14.1;52.37
61676;BME280;47574;52.090;5.244;2023-04-08T07:44:19;102552.0;;;13.99;52.41
61676;BME280;47574;52.090;5.244;2023-04-08T07:47:35;102551.0;;;14.02;52.18
61676;BME280;47574;52.090;5.244;2023-04-08T07:49:11;102553.0;;;14.06;52.59
61676;BME280;47574;52.090;5.244;2023-04-08T07:50:47;102554.0;;;14.23;52.28
61676;BME280;47574;52.090;5.244;2023-04-08T07:53:59;102563.00000000001;;;14.11;51.83
61676;BME280;47574;52.090;5.244;2023-04-08T07:55:36;102557.0;;;14.29;51.33
61676;BME280;47574;52.090;5.244;2023-04-08T07:57:12;102558.0;;;14.34;52.0
61676;BME280;47574;52.090;5.244;2023-04-08T08:00:24;102566.00000000001;;;14.14;52.24
61676;BME280;47574;52.090;5.244;2023-04-08T08:02:00;102567.0;;;13.79;52.75
61676;BME280;47574;52.090;5.244;2023-04-08T08:03:36;102565.00000000001;;;14.07;52.37
61676;BME280;47574;52.090;5.244;2023-04-08T08:05:12;102567.0;;;14.13;52.08
61676;BME280;47574;52.090;5.244;2023-04-08T08:08:25;102565.00000000001;;;14.17;52.76
61676;BME280;47574;52.090;5.244;2023-04-08T08:10:01;102564.00000000001;;;14.4;51.62
61676;BME280;47574;52.090;5.244;2023-04-08T08:11:37;102565.00000000001;;;14.48;51.91
61676;BME280;47574;52.090;5.244;2023-04-08T08:14:50;102567.0;;;14.5;51.3
61676;BME280;47574;52.090;5.244;2023-04-08T08:16:27;102567.0;;;14.49;51.81
61676;BME280;47574;52.090;5.244;2023-04-08T08:18:03;102564.00000000001;;;14.34;51.79
61676;BME280;47574;52.090;5.244;2023-04-08T08:21:15;102564.00000000001;;;14.51;51.34
61676;BME280;47574;52.090;5.244;2023-04-08T08:22:51;102558.0;;;14.78;51.35
61676;BME280;47574;52.090;5.244;2023-04-08T08:24:28;102563.00000000001;;;14.66;50.32
61676;BME280;47574;52.090;5.244;2023-04-08T08:27:42;102567.0;;;14.64;50.56
61676;BME280;47574;52.090;5.244;2023-04-08T08:29:18;102567.0;;;14.54;50.71
61676;BME280;47574;52.090;5.244;2023-04-08T08:30:54;102567.0;;;14.63;50.51
61676;BME280;47574;52.090;5.244;2023-04-08T08:32:30;102558.0;;;14.82;49.93
61676;BME280;47574;52.090;5.244;2023-04-08T08:35:43;102564.00000000001;;;14.89;49.48
61676;BME280;47574;52.090;5.244;2023-04-08T08:37:19;102565.00000000001;;;14.83;49.42
61676;BME280;47574;52.090;5.244;2023-04-08T08:38:55;102569.0;;;14.84;49.48
61676;BME280;47574;52.090;5.244;2023-04-08T08:42:17;102568.0;;;14.97;48.71
61676;BME280;47574;52.090;5.244;2023-04-08T08:43:55;102567.0;;;14.93;48.56
61676;BME280;47574;52.090;5.244;2023-04-08T08:45:32;102570.0;;;14.99;47.77
61676;BME280;47574;52.090;5.244;2023-04-08T08:47:08;102570.0;;;14.83;47.7
61676;BME280;47574;52.090;5.244;2023-04-08T08:50:21;102573.0;;;15.11;47.73
61676;BME280;47574;52.090;5.244;2023-04-08T08:51:57;102571.0;;;15.36;47.12
61676;BME280;47574;52.090;5.244;2023-04-08T08:53:35;102579.0;;;15.44;46.72
61676;BME280;47574;52.090;5.244;2023-04-08T08:56:48;102581.0;;;15.08;46.62
61676;BME280;47574;52.090;5.244;2023-04-08T08:58:25;102583.99999999999;;;15.42;46.49
61676;BME280;47574;52.090;5.244;2023-04-08T09:00:02;102583.99999999999;;;15.34;46.62
61676;BME280;47574;52.090;5.244;2023-04-08T09:03:16;102581.0;;;15.56;45.84
61676;BME280;47574;52.090;5.244;2023-04-08T09:04:56;102589.00000000001;;;15.82;45.46
61676;BME280;47574;52.090;5.244;2023-04-08T09:06:35;102589.00000000001;;;15.84;45.55
61676;BME280;47574;52.090;5.244;2023-04-08T09:08:22;102586.99999999999;;;15.75;45.26
61676;BME280;47574;52.090;5.244;2023-04-08T09:11:35;102590.00000000001;;;15.13;45.27
61676;BME280;47574;52.090;5.244;2023-04-08T09:13:12;102589.00000000001;;;15.0;45.17
61676;BME280;47574;52.090;5.244;2023-04-08T09:14:48;102590.00000000001;;;15.07;44.76
61676;BME280;47574;52.090;5.244;2023-04-08T09:16:25;102594.0;;;15.14;45.15
61676;BME280;47574;52.090;5.244;2023-04-08T09:19:38;102593.0;;;15.65;44.09
61676;BME280;47574;52.090;5.244;2023-04-08T09:21:15;102595.0;;;15.96;44.03
61676;BME280;47574;52.090;5.244;2023-04-08T09:22:56;102596.0;;;16.04;44.21
61676;BME280;47574;52.090;5.244;2023-04-08T09:26:12;102595.0;;;16.23;42.59
61676;BME280;47574;52.090;5.244;2023-04-08T09:27:50;102596.0;;;15.79;42.29
61676;BME280;47574;52.090;5.244;2023-04-08T09:29:26;102593.0;;;15.92;41.52
61676;BME280;47574;52.090;5.244;2023-04-08T09:31:17;102597.0;;;16.2;41.65
61676;BME280;47574;52.090;5.244;2023-04-08T09:34:31;102596.0;;;16.25;40.97
61676;BME280;47574;52.090;5.244;2023-04-08T09:36:07;102593.0;;;16.36;41.25
61676;BME280;47574;52.090;5.244;2023-04-08T09:37:44;102594.0;;;16.36;41.46
61676;BME280;47574;52.090;5.244;2023-04-08T09:39:21;102598.0;;;15.96;41.18
61676;BME280;47574;52.090;5.244;2023-04-08T09:42:39;102599.0;;;16.25;41.64
61676;BME280;47574;52.090;5.244;2023-04-08T09:44:16;102602.0;;;16.45;41.16
61676;BME280;47574;52.090;5.244;2023-04-08T09:45:54;102601.0;;;16.59;41.08
61676;BME280;47574;52.090;5.244;2023-04-08T09:49:25;102607.0;;;16.75;40.29
61676;BME280;47574;52.090;5.244;2023-04-08T09:51:04;102603.0;;;16.86;40.61
61676;BME280;47574;52.090;5.244;2023-04-08T09:52:43;102603.0;;;16.75;40.49
61676;BME280;47574;52.090;5.244;2023-04-08T09:54:25;102608.99999999999;;;16.73;40.96
61676;BME280;47574;52.090;5.244;2023-04-08T09:56:09;102603.0;;;16.59;40.94
61676;BME280;47574;52.090;5.244;2023-04-08T09:59:30;102604.0;;;16.9;40.53
61676;BME280;47574;52.090;5.244;2023-04-08T10:01:13;102604.0;;;16.86;40.57
61676;BME280;47574;52.090;5.244;2023-04-08T10:02:54;102606.0;;;16.86;39.64
61676;BME280;47574;52.090;5.244;2023-04-08T10:04:37;102605.0;;;16.61;39.33
61676;BME280;47574;52.090;5.244;2023-04-08T10:07:55;102602.0;;;16.81;40.03
61676;BME280;47574;52.090;5.244;2023-04-08T10:09:31;102597.0;;;17.22;39.17
61676;BME280;47574;52.090;5.244;2023-04-08T10:11:08;102595.0;;;17.06;39.39
61676;BME280;47574;52.090;5.244;2023-04-08T10:14:21;102593.0;;;17.27;39.6
61676;BME280;47574;52.090;5.244;2023-04-08T10:16:29;102595.0;;;17.31;39.71
61676;BME280;47574;52.090;5.244;2023-04-08T10:18:36;102595.0;;;17.32;39.31
61676;BME280;47574;52.090;5.244;2023-04-08T10:20:40;102594.0;;;17.32;39.39
61676;BME280;47574;52.090;5.244;2023-04-08T10:22:49;102599.0;;;17.34;40.21
61676;BME280;47574;52.090;5.244;2023-04-08T10:24:25;102599.0;;;17.7;39.28
61676;BME280;47574;52.090;5.244;2023-04-08T10:26:28;102599.0;;;17.62;38.31
61676;BME280;47574;52.090;5.244;2023-04-08T10:28:23;102601.0;;;17.77;38.78
61676;BME280;47574;52.090;5.244;2023-04-08T10:29:59;102599.0;;;17.52;39.58
61676;BME280;47574;52.090;5.244;2023-04-08T10:33:16;102593.0;;;17.72;39.36
61676;BME280;47574;52.090;5.244;2023-04-08T10:34:54;102596.0;;;17.95;38.42
61676;BME280;47574;52.090;5.244;2023-04-08T10:36:30;102593.0;;;17.7;40.44
61676;BME280;47574;52.090;5.244;2023-04-08T10:38:06;102592.0;;;17.77;38.28
61676;BME280;47574;52.090;5.244;2023-04-08T10:41:24;102590.00000000001;;;17.84;38.06
61676;BME280;47574;52.090;5.244;2023-04-08T10:43:00;102583.99999999999;;;17.79;38.87
61676;BME280;47574;52.090;5.244;2023-04-08T10:44:36;102583.99999999999;;;18.0;38.07
61676;BME280;47574;52.090;5.244;2023-04-08T10:47:48;102580.0;;;17.96;39.67
61676;BME280;47574;52.090;5.244;2023-04-08T10:49:31;102582.0;;;18.2;39.56
61676;BME280;47574;52.090;5.244;2023-04-08T10:51:08;102582.0;;;18.05;39.92
61676;BME280;47574;52.090;5.244;2023-04-08T10:52:45;102584.99999999999;;;18.05;39.57
61676;BME280;47574;52.090;5.244;2023-04-08T10:56:07;102580.0;;;18.16;38.97